Time;durP1;ratioP1;P1;durP2;ratioP2;P2;SDS_P1;SDS_P2;PMS_P1;PMS_P2;Temp;Humidity;BMP_temperature;BMP_pressure;BME280_temperature;BME280_humidity;BME280_pressure;Samples;Min_cycle;Max_cycle;Signal;HPM_P1;HPM_P2
2021/04/06 00:00:26;;;;;;;10.35;4.53;;;1.70;99.90;;;;;;5093614;28;20040;-73
2021/04/06 00:02:57;;;;;;;15.18;4.00;;;1.70;99.90;;;;;;5094058;28;20023;-73
2021/04/06 00:05:25;;;;;;;15.80;5.00;;;1.70;99.90;;;;;;5093831;28;20140;-73
2021/04/06 00:07:53;;;;;;;8.48;4.22;;;1.70;99.90;;;;;;5093427;28;20469;-74
2021/04/06 00:10:46;;;;;;;12.30;4.53;;;1.70;99.90;;;;;;5092558;28;20028;-74
2021/04/06 00:13:12;;;;;;;10.30;4.53;;;1.70;99.90;;;;;;5093802;28;20024;-73
2021/04/06 00:15:39;;;;;;;8.57;3.75;;;1.70;99.90;;;;;;5092804;28;20041;-73
2021/04/06 00:18:07;;;;;;;13.05;3.35;;;1.70;99.90;;;;;;5093967;28;20461;-73
2021/04/06 00:20:37;;;;;;;10.57;3.85;;;1.70;99.90;;;;;;5092645;28;20434;-73
2021/04/06 00:23:03;;;;;;;11.10;3.60;;;1.70;99.90;;;;;;5092771;28;20360;-73
2021/04/06 00:25:33;;;;;;;12.32;3.80;;;1.80;99.90;;;;;;5093876;28;20055;-73
2021/04/06 00:28:04;;;;;;;12.55;3.20;;;1.80;99.90;;;;;;5093324;28;20019;-73
2021/04/06 00:30:32;;;;;;;10.55;3.95;;;1.80;99.90;;;;;;5092942;28;20056;-73
2021/04/06 00:33:05;;;;;;;9.25;3.40;;;1.80;99.90;;;;;;5093542;28;20024;-73
2021/04/06 00:35:33;;;;;;;17.08;4.05;;;1.80;99.90;;;;;;5093576;28;20024;-73
2021/04/06 00:38:02;;;;;;;12.95;3.00;;;1.80;99.90;;;;;;5093795;28;20043;-73
2021/04/06 00:40:31;;;;;;;7.78;2.65;;;1.90;99.90;;;;;;5092190;28;20021;-73
2021/04/06 00:43:01;;;;;;;11.32;2.42;;;1.90;99.90;;;;;;5075580;28;20024;-73
2021/04/06 00:45:27;;;;;;;7.47;2.60;;;1.90;99.90;;;;;;5094132;28;20103;-73
2021/04/06 00:48:01;;;;;;;12.85;2.75;;;1.90;99.90;;;;;;5097309;28;20051;-73
2021/04/06 00:50:36;;;;;;;5.95;2.20;;;1.90;99.90;;;;;;5097507;28;20038;-73
2021/04/06 00:53:02;;;;;;;7.82;3.42;;;1.90;99.90;;;;;;5097450;28;20373;-73
2021/04/06 00:55:35;;;;;;;12.30;2.60;;;1.80;99.90;;;;;;5097062;28;20145;-73
2021/04/06 00:58:06;;;;;;;8.95;2.50;;;1.80;99.90;;;;;;5096754;28;20020;-73
2021/04/06 01:00:31;;;;;;;5.97;2.38;;;1.80;99.90;;;;;;5079241;28;20040;-73
2021/04/06 01:03:01;;;;;;;12.57;2.78;;;1.80;99.90;;;;;;5096646;28;20027;-73
2021/04/06 01:05:28;;;;;;;12.40;3.10;;;1.80;99.90;;;;;;5096878;28;20020;-73
2021/04/06 01:07:56;;;;;;;8.55;2.55;;;1.70;99.90;;;;;;5097112;28;20073;-73
2021/04/06 01:10:24;;;;;;;5.05;2.28;;;1.70;99.90;;;;;;5097062;28;20518;-73
2021/04/06 01:12:49;;;;;;;11.38;2.60;;;1.70;99.90;;;;;;5096992;28;20024;-73
2021/04/06 01:15:18;;;;;;;7.45;2.15;;;1.70;99.90;;;;;;5096995;28;20028;-73
2021/04/06 01:17:44;;;;;;;8.35;2.78;;;1.70;99.90;;;;;;5096705;28;20037;-73
2021/04/06 01:20:15;;;;;;;11.48;2.88;;;1.70;99.90;;;;;;5096846;28;20016;-73
2021/04/06 01:22:43;;;;;;;9.85;2.58;;;1.60;99.90;;;;;;5096599;28;20028;-73
2021/04/06 01:25:17;;;;;;;6.97;2.03;;;1.60;99.90;;;;;;5096513;28;20050;-73
2021/04/06 01:27:43;;;;;;;16.15;2.67;;;1.60;99.90;;;;;;5096164;28;20016;-73
2021/04/06 01:30:10;;;;;;;9.25;2.50;;;1.60;99.90;;;;;;5096125;28;20077;-73
2021/04/06 01:32:36;;;;;;;8.88;2.45;;;1.60;99.90;;;;;;5096611;28;20028;-73
2021/04/06 01:35:06;;;;;;;9.25;2.10;;;1.50;99.90;;;;;;5096604;28;20024;-73
2021/04/06 01:37:32;;;;;;;7.30;2.10;;;1.50;99.90;;;;;;5096576;28;20028;-73
2021/04/06 01:39:59;;;;;;;6.88;3.10;;;1.40;99.90;;;;;;5095263;28;20473;-73
2021/04/06 01:42:28;;;;;;;8.30;2.70;;;1.40;99.90;;;;;;5096470;28;20028;-73
2021/04/06 01:44:56;;;;;;;6.38;2.42;;;1.40;99.90;;;;;;5096429;28;20020;-73
2021/04/06 01:47:24;;;;;;;14.18;3.05;;;1.50;99.90;;;;;;5078261;28;20354;-73
2021/04/06 01:49:50;;;;;;;12.00;2.75;;;1.50;99.90;;;;;;5096312;28;20020;-73
2021/04/06 01:52:16;;;;;;;5.72;2.17;;;1.60;99.90;;;;;;5096248;28;20024;-73
2021/04/06 01:54:44;;;;;;;9.45;2.97;;;1.60;99.90;;;;;;5095937;28;20023;-73
2021/04/06 01:57:14;;;;;;;8.52;2.65;;;1.60;99.90;;;;;;5096081;28;20075;-73
2021/04/06 01:59:45;;;;;;;7.45;2.50;;;1.60;99.90;;;;;;5095370;28;20036;-73
2021/04/06 02:02:11;;;;;;;10.70;2.75;;;1.50;99.90;;;;;;5094255;28;20389;-73
2021/04/06 02:04:40;;;;;;;11.75;2.80;;;1.50;99.90;;;;;;5096030;28;20020;-73
2021/04/06 02:07:08;;;;;;;11.90;3.22;;;1.50;99.90;;;;;;5095681;28;20027;-73
2021/04/06 02:09:34;;;;;;;10.45;3.20;;;1.50;99.90;;;;;;5094467;28;20067;-73
2021/04/06 02:11:59;;;;;;;11.38;3.55;;;1.60;99.90;;;;;;5095589;28;20382;-73
2021/04/06 02:14:25;;;;;;;8.93;3.25;;;1.60;99.90;;;;;;5095540;28;20026;-73
2021/04/06 02:17:04;;;;;;;9.40;2.67;;;1.70;99.90;;;;;;5095810;28;20028;-73
2021/04/06 02:19:35;;;;;;;7.47;2.50;;;1.70;99.90;;;;;;5095397;28;20114;-73
2021/04/06 02:22:05;;;;;;;10.68;2.15;;;1.70;99.90;;;;;;5095433;28;20368;-73
2021/04/06 02:24:37;;;;;;;13.50;2.75;;;1.70;99.90;;;;;;5093873;28;20022;-73
2021/04/06 02:27:07;;;;;;;7.07;2.33;;;1.80;99.90;;;;;;5095074;28;20020;-73
2021/04/06 02:29:41;;;;;;;9.27;2.33;;;1.80;99.90;;;;;;5095565;28;20073;-73
2021/04/06 02:32:09;;;;;;;11.20;2.40;;;1.80;99.90;;;;;;5094040;28;20030;-73
2021/04/06 02:34:37;;;;;;;7.95;2.08;;;1.80;99.90;;;;;;5095480;28;20419;-73
2021/04/06 02:37:03;;;;;;;7.88;2.00;;;1.80;99.90;;;;;;5095152;28;20059;-73
2021/04/06 02:39:30;;;;;;;13.68;2.33;;;1.80;99.90;;;;;;5093447;28;20084;-73
2021/04/06 02:41:55;;;;;;;8.60;2.22;;;1.80;99.90;;;;;;5094776;28;20473;-73
2021/04/06 02:44:21;;;;;;;10.32;2.50;;;1.80;99.90;;;;;;5095273;28;20024;-73
2021/04/06 02:46:52;;;;;;;7.03;2.30;;;1.80;99.90;;;;;;5095198;28;20023;-73
2021/04/06 02:49:18;;;;;;;13.35;2.85;;;1.80;99.90;;;;;;5095171;28;20020;-73
2021/04/06 02:51:44;;;;;;;5.32;2.78;;;1.90;99.90;;;;;;5093696;28;20028;-73
2021/04/06 02:54:12;;;;;;;8.40;2.33;;;1.90;99.90;;;;;;5095078;28;20380;-73
2021/04/06 02:56:38;;;;;;;9.02;2.28;;;1.80;99.90;;;;;;5095055;28;20369;-73
2021/04/06 02:59:14;;;;;;;11.50;2.47;;;1.80;99.90;;;;;;5094503;28;20059;-73
2021/04/06 03:01:40;;;;;;;8.77;2.80;;;1.80;99.90;;;;;;5094950;28;20013;-73
2021/04/06 03:04:27;;;;;;;13.15;2.92;;;1.80;99.90;;;;;;5093074;28;20358;-73
2021/04/06 03:06:58;;;;;;;9.10;2.00;;;1.70;99.90;;;;;;5094809;28;20020;-73
2021/04/06 03:09:25;;;;;;;12.10;3.03;;;1.70;99.90;;;;;;5094314;28;20412;-72
2021/04/06 03:11:54;;;;;;;12.77;2.17;;;1.70;99.90;;;;;;5093597;28;20047;-73
2021/04/06 03:14:22;;;;;;;15.60;3.30;;;1.70;99.90;;;;;;5094690;28;20074;-73
2021/04/06 03:16:50;;;;;;;16.33;2.08;;;1.70;99.90;;;;;;5093253;28;20057;-73
2021/04/06 03:19:16;;;;;;;8.63;2.45;;;1.70;99.90;;;;;;5092735;28;20031;-73
2021/04/06 03:21:42;;;;;;;15.43;2.85;;;1.70;99.90;;;;;;5093640;28;20017;-73
2021/04/06 03:24:09;;;;;;;10.60;3.15;;;1.80;99.90;;;;;;5094543;28;20031;-73
2021/04/06 03:26:35;;;;;;;10.20;2.50;;;1.80;99.90;;;;;;5094519;28;20032;-73
2021/04/06 03:29:01;;;;;;;8.88;2.88;;;1.80;99.90;;;;;;5094243;28;20016;-73
2021/04/06 03:31:28;;;;;;;14.70;3.05;;;1.70;99.90;;;;;;5094135;28;20024;-73
2021/04/06 03:33:57;;;;;;;16.77;3.38;;;1.70;99.90;;;;;;5094375;28;20024;-73
2021/04/06 03:36:26;;;;;;;12.38;2.72;;;1.70;99.90;;;;;;5092565;28;20027;-73
2021/04/06 03:38:55;;;;;;;9.32;3.00;;;1.70;99.90;;;;;;5094011;28;20028;-73
2021/04/06 03:41:23;;;;;;;7.72;2.30;;;1.70;99.90;;;;;;5092825;28;20020;-73
2021/04/06 03:43:49;;;;;;;13.65;2.88;;;1.70;99.90;;;;;;5093917;28;20377;-73
2021/04/06 03:46:23;;;;;;;11.68;2.63;;;1.70;99.90;;;;;;5094114;28;20461;-73
2021/04/06 03:48:50;;;;;;;14.52;3.47;;;1.70;99.90;;;;;;5093931;28;20070;-73
2021/04/06 03:51:29;;;;;;;14.45;3.53;;;1.70;99.90;;;;;;5093890;28;20103;-73
2021/04/06 03:53:55;;;;;;;12.48;3.20;;;1.70;99.90;;;;;;5093878;28;20469;-73
2021/04/06 03:56:36;;;;;;;8.50;2.58;;;1.70;99.90;;;;;;5094106;28;20056;-73
2021/04/06 03:59:02;;;;;;;13.00;3.78;;;1.60;99.90;;;;;;5093619;28;20032;-73
2021/04/06 04:01:28;;;;;;;9.80;3.35;;;1.60;99.90;;;;;;5093531;28;20019;-73
2021/04/06 04:03:55;;;;;;;11.48;4.10;;;1.50;99.90;;;;;;5094066;28;20016;-73
2021/04/06 04:06:24;;;;;;;10.25;3.20;;;1.50;99.90;;;;;;5094019;28;20024;-73
2021/04/06 04:08:51;;;;;;;11.80;2.97;;;1.40;99.90;;;;;;5094221;28;20461;-73
2021/04/06 04:11:16;;;;;;;14.48;4.13;;;1.50;99.90;;;;;;5092494;28;20024;-73
2021/04/06 04:13:42;;;;;;;14.52;3.75;;;1.50;99.90;;;;;;5092990;28;20368;-73
2021/04/06 04:16:07;;;;;;;16.23;3.10;;;1.50;99.90;;;;;;5092130;28;20024;-73
2021/04/06 04:18:33;;;;;;;11.55;2.75;;;1.50;99.90;;;;;;5092409;28;20028;-73
2021/04/06 04:21:02;;;;;;;15.18;3.38;;;1.50;99.90;;;;;;5095526;28;20020;-73
2021/04/06 04:23:28;;;;;;;10.35;4.07;;;1.50;99.90;;;;;;5097967;28;20051;-73
2021/04/06 04:25:53;;;;;;;9.27;2.42;;;1.60;99.90;;;;;;5097934;28;20031;-73
2021/04/06 04:28:19;;;;;;;10.45;2.83;;;1.60;99.90;;;;;;5097855;28;20024;-73
2021/04/06 04:30:51;;;;;;;11.65;3.22;;;1.60;99.90;;;;;;5097526;28;20040;-73
2021/04/06 04:33:16;;;;;;;10.98;3.70;;;1.50;99.90;;;;;;5097507;28;20107;-73
2021/04/06 04:35:42;;;;;;;8.35;3.03;;;1.50;99.90;;;;;;5097731;28;20429;-73
2021/04/06 04:38:09;;;;;;;10.98;4.25;;;1.50;99.90;;;;;;5097427;28;20092;-73
2021/04/06 04:40:38;;;;;;;14.63;3.30;;;1.50;99.90;;;;;;5097563;28;20035;-73
2021/04/06 04:43:04;;;;;;;12.43;3.50;;;1.50;99.90;;;;;;5097034;28;20020;-72
2021/04/06 04:45:30;;;;;;;11.07;2.80;;;1.50;99.90;;;;;;5097002;28;20020;-73
2021/04/06 04:47:55;;;;;;;14.73;2.85;;;1.50;99.90;;;;;;5097226;28;20028;-73
2021/04/06 04:50:22;;;;;;;14.95;3.33;;;1.50;99.90;;;;;;5097452;28;20089;-73
2021/04/06 04:52:50;;;;;;;19.45;4.40;;;1.50;99.90;;;;;;5097205;28;20417;-73
2021/04/06 04:55:18;;;;;;;24.35;3.47;;;1.50;99.90;;;;;;5097405;28;20039;-73
2021/04/06 04:57:44;;;;;;;12.80;4.07;;;1.60;99.90;;;;;;5095840;28;20067;-73
2021/04/06 05:00:11;;;;;;;19.23;4.03;;;1.60;99.90;;;;;;5096599;28;20044;-73
2021/04/06 05:02:37;;;;;;;20.63;3.97;;;1.60;99.90;;;;;;5097273;28;20020;-73
2021/04/06 05:05:04;;;;;;;10.80;3.35;;;1.60;99.90;;;;;;5097227;28;20346;-73
2021/04/06 05:07:30;;;;;;;16.80;4.05;;;1.70;99.90;;;;;;5097190;28;20018;-73
2021/04/06 05:09:56;;;;;;;19.50;4.20;;;1.70;99.90;;;;;;5095710;28;20103;-73
2021/04/06 05:12:21;;;;;;;23.80;4.35;;;1.60;99.90;;;;;;5096835;28;20036;-73
2021/04/06 05:14:47;;;;;;;21.80;4.57;;;1.70;99.90;;;;;;5095252;28;20028;-73
2021/04/06 05:17:14;;;;;;;19.05;3.70;;;1.70;99.90;;;;;;5096756;28;20027;-73
2021/04/06 05:19:40;;;;;;;18.30;4.28;;;1.70;99.90;;;;;;5096561;28;20027;-73
2021/04/06 05:22:06;;;;;;;21.92;5.13;;;1.80;99.90;;;;;;5096946;28;20020;-73
2021/04/06 05:24:31;;;;;;;20.17;4.65;;;1.70;99.90;;;;;;5096581;28;20028;-73
2021/04/06 05:26:57;;;;;;;15.98;5.50;;;1.80;99.90;;;;;;5096825;28;20373;-73
2021/04/06 05:29:22;;;;;;;26.48;5.00;;;1.80;99.90;;;;;;5096235;28;20051;-73
2021/04/06 05:31:48;;;;;;;22.58;8.02;;;1.90;99.90;;;;;;5096257;28;20466;-73
2021/04/06 05:34:14;;;;;;;16.42;4.10;;;1.80;99.90;;;;;;5096428;28;20350;-73
2021/04/06 05:36:39;;;;;;;10.95;3.08;;;1.90;99.90;;;;;;5096644;28;20043;-73
2021/04/06 05:39:05;;;;;;;18.00;4.70;;;1.90;99.90;;;;;;5095988;28;20024;-73
2021/04/06 05:41:31;;;;;;;34.13;14.48;;;1.90;99.90;;;;;;5096558;28;20031;-73
2021/04/06 05:44:00;;;;;;;28.38;10.27;;;1.90;99.90;;;;;;5096475;28;20362;-73
2021/04/06 05:46:32;;;;;;;33.47;12.48;;;2.00;99.90;;;;;;5096088;28;20358;-73
2021/04/06 05:49:01;;;;;;;18.42;5.57;;;2.00;99.90;;;;;;5095245;28;20516;-73
2021/04/06 05:51:28;;;;;;;26.40;5.05;;;2.00;99.90;;;;;;5096370;28;20028;-73
2021/04/06 05:53:54;;;;;;;22.55;6.25;;;2.10;99.90;;;;;;5096245;28;20416;-73
2021/04/06 05:56:19;;;;;;;38.03;12.60;;;2.00;99.90;;;;;;5096246;28;20049;-72
2021/04/06 05:58:45;;;;;;;22.70;4.68;;;2.00;99.90;;;;;;5094550;28;20171;-72
2021/04/06 06:01:11;;;;;;;17.23;4.20;;;2.00;99.90;;;;;;5095151;28;20069;-73
2021/04/06 06:03:37;;;;;;;27.20;4.55;;;2.00;99.90;;;;;;5077209;28;20048;-72
2021/04/06 06:06:03;;;;;;;30.13;5.45;;;2.10;99.90;;;;;;5094824;28;20529;-72
2021/04/06 06:08:30;;;;;;;19.27;4.70;;;2.10;99.90;;;;;;5093732;28;20016;-72
2021/04/06 06:11:04;;;;;;;15.55;4.10;;;2.20;99.90;;;;;;5087156;28;20033;-72
2021/04/06 06:13:29;;;;;;;17.27;3.55;;;2.50;99.90;;;;;;5081193;28;20028;-72
2021/04/06 06:16:17;;;;;;;20.55;4.97;;;2.80;99.90;;;;;;5076288;28;20036;-72
2021/04/06 06:19:04;;;;;;;11.18;2.67;;;2.80;99.90;;;;;;5082316;28;20028;-72
2021/04/06 06:21:48;;;;;;;16.00;3.58;;;2.90;99.90;;;;;;5093419;28;20024;-72
2021/04/06 06:24:30;;;;;;;;;;;3.30;99.90;;;;;;5094833;28;20020;-73
2021/04/06 06:26:57;;;;;;;14.30;3.15;;;3.20;99.90;;;;;;5088353;28;19912;-73
2021/04/06 06:29:26;;;;;;;15.88;3.40;;;3.30;99.90;;;;;;5080727;28;20017;-73
2021/04/06 06:31:54;;;;;;;15.18;3.10;;;3.60;99.90;;;;;;5088909;28;20032;-73
2021/04/06 06:34:36;;;;;;;24.15;8.07;;;3.60;99.90;;;;;;5093937;28;20077;-73
2021/04/06 06:37:15;;;;;;;22.25;8.40;;;3.50;99.90;;;;;;5095187;28;20028;-73
2021/04/06 06:42:35;;;;;;;11.57;2.90;;;3.20;99.90;;;;;;5074328;27;20381;-73
2021/04/06 06:45:03;;;;;;;14.75;3.65;;;3.10;99.90;;;;;;5080981;28;20028;-72
2021/04/06 06:47:31;;;;;;;17.02;3.35;;;3.00;99.90;;;;;;5091403;28;20028;-73
2021/04/06 06:50:09;;;;;;;16.45;3.13;;;3.30;99.90;;;;;;5081351;28;20035;-73
2021/04/06 06:52:35;;;;;;;10.73;2.50;;;3.30;99.90;;;;;;5074184;28;20031;-72
2021/04/06 06:55:16;;;;;;;9.65;2.33;;;3.60;99.90;;;;;;5089534;28;20109;-72
2021/04/06 06:57:42;;;;;;;7.80;2.35;;;4.10;99.90;;;;;;5088324;28;20477;-72
2021/04/06 07:00:15;;;;;;;12.60;2.45;;;3.80;99.90;;;;;;5088823;28;20024;-72
2021/04/06 07:02:41;;;;;;;13.05;2.95;;;3.60;99.90;;;;;;5062358;28;20362;-72
2021/04/06 07:05:25;;;;;;;16.77;4.30;;;3.40;99.90;;;;;;5079829;28;20541;-72
2021/04/06 07:07:57;;;;;;;18.63;3.95;;;3.10;99.90;;;;;;5075141;28;20017;-72
2021/04/06 07:10:27;;;;;;;17.40;3.78;;;3.00;99.90;;;;;;5079328;28;20043;-72
2021/04/06 07:12:58;;;;;;;16.92;4.50;;;3.00;99.90;;;;;;5077581;28;20024;-72
2021/04/06 07:15:25;;;;;;;12.27;2.53;;;2.90;99.90;;;;;;5062353;28;20059;-72
2021/04/06 07:17:55;;;;;;;8.40;2.63;;;2.80;99.90;;;;;;5089843;28;20487;-72
2021/04/06 07:20:21;;;;;;;13.45;3.78;;;2.80;99.90;;;;;;5089875;28;20025;-71
2021/04/06 07:22:48;;;;;;;13.35;3.08;;;2.70;99.90;;;;;;5090289;28;20020;-70
2021/04/06 07:25:14;;;;;;;13.85;3.28;;;2.70;99.90;;;;;;5061536;28;20025;-70
2021/04/06 07:27:42;;;;;;;16.88;5.88;;;2.80;99.90;;;;;;5070539;28;20032;-71
2021/04/06 07:30:12;;;;;;;13.95;3.38;;;3.00;99.90;;;;;;5070349;28;20048;-71
2021/04/06 07:32:40;;;;;;;12.90;6.43;;;3.10;99.90;;;;;;5071624;28;20363;-72
2021/04/06 07:35:07;;;;;;;10.60;3.65;;;3.00;99.90;;;;;;5086878;28;20016;-71
2021/04/06 07:37:38;;;;;;;13.88;3.50;;;3.00;99.90;;;;;;5085862;28;20031;-70
2021/04/06 07:40:08;;;;;;;16.58;3.45;;;3.00;99.90;;;;;;5070889;28;20021;-70
2021/04/06 07:42:34;;;;;;;11.68;2.90;;;3.00;99.90;;;;;;5075350;28;20039;-71
2021/04/06 07:44:59;;;;;;;12.75;2.75;;;3.10;99.90;;;;;;5088753;28;20079;-68
2021/04/06 07:47:41;;;;;;;11.00;3.00;;;3.20;99.90;;;;;;5072509;28;20615;-73
2021/04/06 07:50:12;;;;;;;13.57;3.05;;;3.40;99.90;;;;;;5105790;28;20016;-71
2021/04/06 07:52:38;;;;;;;11.50;2.95;;;3.60;99.90;;;;;;5071352;28;20108;-71
2021/04/06 07:55:05;;;;;;;7.93;2.25;;;3.90;99.90;;;;;;5091273;28;20020;-71
2021/04/06 07:57:48;;;;;;;9.40;2.70;;;4.30;99.90;;;;;;5070012;28;20151;-72
2021/04/06 08:00:53;;;;;;;7.90;2.20;;;5.00;99.90;;;;;;5089361;28;20378;-72
2021/04/06 08:06:53;;;;;;;11.00;2.08;;;6.30;99.90;;;;;;5093494;28;20925;-71
2021/04/06 08:12:16;;;;;;;7.40;1.52;;;6.40;99.90;;;;;;5113137;27;20359;-72
2021/04/06 08:14:51;;;;;;;6.85;1.92;;;6.00;99.90;;;;;;5103782;28;20394;-72
2021/04/06 08:17:37;;;;;;;13.18;2.30;;;6.60;99.90;;;;;;5110994;28;20024;-71
2021/04/06 08:20:23;;;;;;;6.55;1.80;;;6.30;99.90;;;;;;5118020;28;20054;-72
2021/04/06 08:22:55;;;;;;;9.43;1.95;;;5.90;99.90;;;;;;5124882;27;20084;-72
2021/04/06 08:28:04;;;;;;;10.48;1.75;;;5.30;99.90;;;;;;5115653;27;20108;-72
2021/04/06 08:30:39;;;;;;;12.52;3.55;;;4.70;99.90;;;;;;5121290;28;20392;-72
2021/04/06 08:41:05;;;;;;;12.93;5.18;;;4.80;99.90;;;;;;5124413;27;20130;-70
2021/04/06 08:43:36;;;;;;;7.43;1.70;;;4.30;99.90;;;;;;5119233;28;20034;-70
2021/04/06 08:46:05;;;;;;;11.23;2.03;;;4.20;99.90;;;;;;5126370;28;20027;-72
2021/04/06 08:51:30;;;;;;;11.35;2.47;;;4.20;99.90;;;;;;5107886;28;20347;-70
2021/04/06 08:53:59;;;;;;;9.93;2.45;;;4.60;99.90;;;;;;5057588;28;20024;-70
2021/04/06 08:56:34;;;;;;;12.80;2.45;;;4.70;99.90;;;;;;5053088;28;20060;-72
2021/04/06 09:02:16;;;;;;;9.88;2.15;;;5.40;99.90;;;;;;5125803;27;20356;-71
2021/04/06 09:04:45;;;;;;;9.32;2.50;;;6.90;99.90;;;;;;5135953;27;20475;-72
2021/04/06 09:07:28;;;;;;;13.70;2.97;;;7.40;99.90;;;;;;5128612;27;20019;-72
2021/04/06 09:09:56;;;;;;;11.02;2.63;;;6.50;99.90;;;;;;5117750;28;20076;-72
2021/04/06 09:12:23;;;;;;;12.90;3.47;;;5.80;99.90;;;;;;5129704;28;20030;-72
2021/04/06 09:14:49;;;;;;;10.75;3.22;;;5.20;99.90;;;;;;5117044;28;20380;-71
2021/04/06 09:17:15;;;;;;;8.98;3.47;;;4.90;99.90;;;;;;5121440;28;20035;-71
2021/04/06 09:19:41;;;;;;;10.07;3.83;;;4.60;99.90;;;;;;5125593;28;20039;-70
2021/04/06 09:22:13;;;;;;;13.55;3.63;;;4.60;99.90;;;;;;5112012;28;20031;-70
2021/04/06 09:24:40;;;;;;;8.60;2.28;;;5.10;99.90;;;;;;5114815;28;20024;-71
2021/04/06 09:27:06;;;;;;;7.60;2.20;;;5.90;99.90;;;;;;5109478;28;20495;-71
2021/04/06 09:29:50;;;;;;;10.27;2.40;;;7.10;99.90;;;;;;5116140;28;20492;-71
2021/04/06 09:32:19;;;;;;;6.78;2.30;;;7.50;99.90;;;;;;5109496;28;20035;-71
2021/04/06 09:34:47;;;;;;;8.60;2.47;;;7.70;99.90;;;;;;5131105;28;20015;-71
2021/04/06 09:37:17;;;;;;;8.18;3.05;;;7.50;99.90;;;;;;5129861;28;20019;-71
2021/04/06 09:39:47;;;;;;;4.82;2.03;;;7.50;99.90;;;;;;5126952;27;20012;-71
2021/04/06 09:42:13;;;;;;;8.02;2.78;;;8.40;99.90;;;;;;5128211;28;20027;-71
2021/04/06 09:44:40;;;;;;;12.02;2.85;;;8.60;99.90;;;;;;5134657;27;20023;-72
2021/04/06 09:47:09;;;;;;;8.45;2.83;;;8.90;99.90;;;;;;5139881;27;20391;-73
2021/04/06 09:49:38;;;;;;;8.38;2.95;;;9.60;99.90;;;;;;5142096;27;20467;-72
2021/04/06 09:52:11;;;;;;;4.65;2.08;;;9.50;99.90;;;;;;5130505;27;20391;-69
2021/04/06 09:54:41;;;;;;;6.07;2.08;;;8.40;99.90;;;;;;5138110;27;20019;-73
2021/04/06 09:57:10;;;;;;;7.78;2.53;;;8.10;99.90;;;;;;5143747;27;20476;-75
2021/04/06 09:59:38;;;;;;;9.32;2.40;;;9.10;99.90;;;;;;5133814;27;20023;-71
2021/04/06 10:02:05;;;;;;;6.32;1.80;;;9.50;99.90;;;;;;5132637;27;20441;-71
2021/04/06 10:04:40;;;;;;;10.93;2.40;;;9.20;99.90;;;;;;5138676;27;20027;-71
2021/04/06 10:07:26;;;;;;;7.65;2.47;;;8.70;99.90;;;;;;5136161;27;20495;-71
2021/04/06 10:10:00;;;;;;;8.68;2.58;;;7.70;99.90;;;;;;5146352;27;20023;-71
2021/04/06 10:12:29;;;;;;;11.57;2.42;;;7.20;99.90;;;;;;5104425;28;20500;-72
2021/04/06 10:14:55;;;;;;;12.93;2.70;;;7.20;99.90;;;;;;5115378;28;20668;-68
2021/04/06 10:17:23;;;;;;;10.60;2.40;;;7.30;99.90;;;;;;5104609;28;20103;-71
2021/04/06 10:20:00;;;;;;;10.20;2.45;;;7.50;99.90;;;;;;5084577;28;20032;-71
2021/04/06 10:22:26;;;;;;;5.80;1.80;;;7.70;99.90;;;;;;5116315;28;20059;-70
2021/04/06 10:25:00;;;;;;;6.00;2.00;;;7.60;99.90;;;;;;5115936;28;20016;-71
2021/04/06 10:27:28;;;;;;;6.32;2.47;;;7.90;99.90;;;;;;5108756;28;20473;-69
2021/04/06 10:30:00;;;;;;;9.57;2.47;;;8.30;99.90;;;;;;5115498;28;20032;-71
2021/04/06 10:32:33;;;;;;;10.63;2.90;;;8.50;99.90;;;;;;5112597;28;20042;-71
2021/04/06 10:35:05;;;;;;;7.03;2.05;;;8.80;99.90;;;;;;5114404;28;20079;-71
2021/04/06 10:37:45;;;;;;;8.73;2.15;;;8.70;99.90;;;;;;5116000;28;20019;-74
2021/04/06 10:40:21;;;;;;;6.85;2.60;;;7.70;99.90;;;;;;5096424;28;20414;-76
2021/04/06 10:42:50;;;;;;;6.35;2.15;;;6.70;99.90;;;;;;5097360;28;20488;-70
2021/04/06 10:45:19;;;;;;;8.25;2.38;;;6.30;99.90;;;;;;5114942;28;20076;-71
2021/04/06 10:47:44;;;;;;;8.38;2.00;;;5.70;99.90;;;;;;5112986;28;20216;-72
2021/04/06 10:50:11;;;;;;;6.90;1.80;;;5.00;99.90;;;;;;5123449;27;20114;-72
2021/04/06 10:52:36;;;;;;;8.02;2.08;;;4.00;99.90;;;;;;5108604;27;20060;-72
2021/04/06 10:55:05;;;;;;;11.40;2.40;;;3.50;99.90;;;;;;5116164;28;20065;-71
2021/04/06 10:57:35;;;;;;;11.23;2.53;;;3.00;99.90;;;;;;5107685;28;20108;-73
2021/04/06 11:00:20;;;;;;;7.97;2.25;;;2.90;99.90;;;;;;5114593;27;20039;-72
2021/04/06 11:02:46;;;;;;;12.63;2.20;;;2.90;99.90;;;;;;5111700;27;20028;-71
2021/04/06 11:05:26;;;;;;;7.22;3.10;;;2.70;99.90;;;;;;5104831;28;20076;-71
2021/04/06 11:07:52;;;;;;;7.70;2.78;;;2.40;99.90;;;;;;5104780;28;20050;-71
2021/04/06 11:10:23;;;;;;;8.73;2.50;;;2.40;99.90;;;;;;5110391;28;20492;-71
2021/04/06 11:12:48;;;;;;;6.25;2.10;;;2.30;99.90;;;;;;5108531;28;20031;-71
2021/04/06 11:15:14;;;;;;;7.68;2.30;;;2.10;99.90;;;;;;5104207;28;20028;-70
2021/04/06 11:17:42;;;;;;;4.00;1.73;;;1.90;99.90;;;;;;5104543;28;20361;-69
2021/04/06 11:20:08;;;;;;;4.55;2.00;;;1.70;99.90;;;;;;5111996;28;20035;-70
2021/04/06 11:22:34;;;;;;;5.78;2.00;;;1.60;99.90;;;;;;5100731;28;20020;-74
2021/04/06 11:24:59;;;;;;;5.00;2.08;;;1.50;99.90;;;;;;5104216;28;20478;-71
2021/04/06 11:27:25;;;;;;;5.15;1.85;;;1.60;99.90;;;;;;5105091;28;20020;-71
2021/04/06 11:29:50;;;;;;;4.25;2.38;;;1.70;99.90;;;;;;5112458;28;20035;-70
2021/04/06 11:32:18;;;;;;;4.78;1.67;;;1.70;99.90;;;;;;5099808;28;20023;-68
2021/04/06 11:34:45;;;;;;;39.80;19.05;;;2.20;99.90;;;;;;5112619;28;20028;-70
2021/04/06 11:37:12;;;;;;;27.58;14.82;;;2.90;99.90;;;;;;5103390;28;20039;-68
2021/04/06 11:39:40;;;;;;;27.85;19.88;;;3.20;99.90;;;;;;5107868;28;20019;-70
2021/04/06 11:42:07;;;;;;;8.18;5.07;;;3.40;99.90;;;;;;5104825;28;20055;-69
2021/04/06 11:44:33;;;;;;;3.55;2.70;;;3.50;99.90;;;;;;5104689;28;20016;-71
2021/04/06 11:46:59;;;;;;;6.65;3.20;;;3.80;99.90;;;;;;5104272;28;20042;-73
2021/04/06 11:49:26;;;;;;;4.30;2.65;;;4.30;99.90;;;;;;5112601;28;20015;-71
2021/04/06 11:51:52;;;;;;;3.90;2.08;;;5.00;99.90;;;;;;5103368;28;20019;-68
2021/04/06 11:54:19;;;;;;;6.97;2.20;;;5.20;99.90;;;;;;5114246;28;20046;-71
2021/04/06 11:56:46;;;;;;;3.83;1.95;;;5.30;99.90;;;;;;5099945;28;20392;-70
2021/04/06 11:59:12;;;;;;;2.90;1.58;;;5.40;99.90;;;;;;5094698;28;20032;-69
2021/04/06 12:01:38;;;;;;;5.57;1.85;;;5.00;99.90;;;;;;5097272;28;20056;-70
2021/04/06 12:04:05;;;;;;;5.25;1.85;;;4.80;99.90;;;;;;5113501;28;20024;-70
2021/04/06 12:06:30;;;;;;;3.55;2.13;;;4.80;99.90;;;;;;5109621;28;20023;-69
2021/04/06 12:08:56;;;;;;;4.45;2.05;;;4.50;99.90;;;;;;5110852;28;20043;-69
2021/04/06 12:11:23;;;;;;;5.70;2.30;;;4.30;99.90;;;;;;5102647;28;20495;-69
2021/04/06 12:13:49;;;;;;;5.97;2.38;;;4.00;99.90;;;;;;5101934;28;20036;-70
2021/04/06 12:16:15;;;;;;;8.40;3.40;;;3.70;99.90;;;;;;5093101;28;20385;-69
2021/04/06 12:18:41;;;;;;;8.25;2.60;;;3.90;99.90;;;;;;5113077;28;20057;-71
2021/04/06 12:21:08;;;;;;;10.10;2.75;;;3.70;99.90;;;;;;5111656;28;20461;-71
2021/04/06 12:23:35;;;;;;;7.25;3.20;;;3.80;99.90;;;;;;5095772;28;20020;-69
2021/04/06 12:26:01;;;;;;;5.00;2.95;;;4.30;99.90;;;;;;5112552;28;20011;-72
2021/04/06 12:28:26;;;;;;;4.35;1.85;;;4.60;99.90;;;;;;5112875;28;20023;-72
2021/04/06 12:30:52;;;;;;;8.52;2.08;;;4.50;99.90;;;;;;5090989;28;20118;-70
2021/04/06 12:33:17;;;;;;;6.45;1.98;;;4.50;99.90;;;;;;5100264;28;20046;-67
2021/04/06 12:35:43;;;;;;;3.33;1.25;;;4.80;99.90;;;;;;5114197;28;20396;-69
2021/04/06 12:38:08;;;;;;;6.03;1.55;;;4.90;99.90;;;;;;5086358;28;20028;-69
2021/04/06 12:40:34;;;;;;;3.88;1.50;;;5.10;99.90;;;;;;5103631;28;20016;-71
2021/04/06 12:42:59;;;;;;;6.72;1.65;;;5.40;99.90;;;;;;5110618;28;20099;-70
2021/04/06 12:45:26;;;;;;;7.50;2.75;;;5.30;99.90;;;;;;5095503;28;20101;-71
2021/04/06 12:47:51;;;;;;;5.75;1.83;;;5.50;99.90;;;;;;5094122;28;20024;-72
2021/04/06 12:50:17;;;;;;;5.60;2.00;;;5.70;99.90;;;;;;5093937;28;20092;-71
2021/04/06 12:52:43;;;;;;;1.70;1.23;;;5.60;99.90;;;;;;5111340;28;20038;-70
2021/04/06 12:55:09;;;;;;;2.13;1.30;;;5.90;99.90;;;;;;5113440;28;20505;-70
2021/04/06 12:57:35;;;;;;;7.15;1.73;;;6.00;99.90;;;;;;5112826;28;20072;-74
2021/04/06 13:00:01;;;;;;;3.20;1.67;;;5.70;99.90;;;;;;5112472;28;20079;-69
2021/04/06 13:02:27;;;;;;;2.33;1.33;;;5.70;99.90;;;;;;5105914;28;20372;-70
2021/04/06 13:04:52;;;;;;;6.00;1.52;;;5.90;99.90;;;;;;5106512;28;20030;-72
2021/04/06 13:07:18;;;;;;;3.33;1.50;;;5.80;99.90;;;;;;5107079;28;20058;-72
2021/04/06 13:09:43;;;;;;;1.88;1.50;;;5.90;99.90;;;;;;5113654;28;20023;-71
2021/04/06 13:12:09;;;;;;;7.10;2.30;;;5.80;99.90;;;;;;5104018;28;20024;-69
2021/04/06 13:14:35;;;;;;;3.38;1.70;;;5.60;99.90;;;;;;5082332;28;20017;-71
2021/04/06 13:17:01;;;;;;;4.60;2.33;;;5.40;99.90;;;;;;5058595;28;20024;-71
2021/04/06 13:19:27;;;;;;;4.85;2.20;;;5.20;99.90;;;;;;5098644;28;20024;-71
2021/04/06 13:21:54;;;;;;;4.90;2.33;;;5.30;99.90;;;;;;5092336;28;20060;-68
2021/04/06 13:24:20;;;;;;;5.10;2.22;;;5.30;99.90;;;;;;5103153;28;20012;-71